Campiña-Situação meteorológica que não inspira cuidado.   -   Não há avisos

Nearby METAR Reports

 

LEZL - Sevilla, Spain
Distance from station: ENE 8km
Actualizado: 29/01/2020 11:00
Mist, Nearby fog, Muito nublado
Mist, Nearby fog, Muito nublado
 Vento de NNE
Vento: NNE 9 km/h
Temperatura: 12°C
Ponto de Orvalho: 12°C
Humidade: 100%
Barómetro: 1027 hPa
Resumo: Mist, Nearby fog
Clouds: Muito nublado
Visibility: 5 km
Cloud details: Muito nublado 91 m
2020/01/29 10:00 LEZL 291000Z 02005KT 350V060 5000 BR VCFG BKN003 12/12 Q1027 NOSIG
LEMO - Morón, Spain
Distance from station: SE 43km
Actualizado: 29/01/2020 11:00
Parcialmente nublado
Parcialmente nublado
 Vento de NNE
Vento: NNE 11 km/h
Temperatura: 13°C
Ponto de Orvalho: 10°C
Humidade: 82%
Barómetro: 1026 hPa
Clouds: Parcialmente nublado
Visibility: 8 km
2020/01/29 10:00 LEMO 291000Z 02006KT 340V050 8000 NSC 13/10 Q1026 NOSIG
LEJR - Jeréz, Spain
Distance from station: S 71km
Actualizado: 29/01/2020 11:30
Patches of fog, Mist, Few clouds
Patches of fog, Mist, Few clouds
 Vento de NNW
Vento: NNW 7 km/h
Temperatura: 12°C
Ponto de Orvalho: 12°C
Humidade: 100%
Barómetro: 1026 hPa
Resumo: Patches of fog, Mist
Clouds: Few Clouds
Visibility: 5 km
Cloud details: Few Clouds 1067 m
2020/01/29 10:30 LEJR 291030Z 33004KT 290V030 4500 BCFG BR FEW035 12/12 Q1026
 
LERT - Rota, Spain
Distance from station: SSW 89km
Actualizado: 29/01/2020 11:00
Parcialmente nublado
Parcialmente nublado
 Vento de NNE
Vento: NNE 7 km/h
Temperatura: 13°C
Ponto de Orvalho: 12°C
Humidade: 94%
Barómetro: 1026 hPa
Clouds: Parcialmente nublado
Visibility: 6 km
2020/01/29 10:00 LERT 291000Z 03004KT 6000 NSC 13/12 Q1026 NOSIG
LEMG - Málaga, Spain
Distance from station: ESE 157km
Actualizado: 29/01/2020 11:00
Céu limpo
Céu limpo
 Vento de WNW
Vento: WNW 15 km/h
Temperatura: 17°C
Ponto de Orvalho: 10°C
Humidade: 64%
Barómetro: 1025 hPa
Resumo: Céu limpo
Visibility: greater than 10 km
2020/01/29 10:00 LEMG 291000Z 29008KT 250V320 CAVOK 17/10 Q1025 NOSIG
LEBA - Córdoba, Spain
Distance from station: ENE 115km
Actualizado: 29/01/2020 11:00
Parcialmente nublado
Parcialmente nublado
 Vento de ENE
Vento: ENE 6 km/h
Temperatura: 11°C
Ponto de Orvalho: 10°C
Humidade: 94%
Barómetro: 1027 hPa
Clouds: Parcialmente nublado
Visibility: 9 km
2020/01/29 10:00 LEBA 291000Z 07003KT 9000 NSC 11/10 Q1027
 
LEGR - Granada, Spain
Distance from station: E 198km
Actualizado: 29/01/2020 11:00
Nevoeiro, Encoberto
Nevoeiro, Encoberto
 Vento de calm
Vento: Calmo
Temperatura: 5°C
Ponto de Orvalho: 5°C
Humidade: 100%
Barómetro: 1027 hPa
Resumo: Nevoeiro
Clouds: Encoberto
Visibility: 0 km
Cloud details: Encoberto 30 m
2020/01/29 10:00 LEGR 291000Z 00000KT 0400 R09/0550U FG VV001 05/05 Q1027
LEAM - Almería, Spain
Distance from station: E 326km
Actualizado: 29/01/2020 11:00
Nearby fog, Encoberto
Nearby fog, Encoberto
 Vento de WSW
Vento: WSW 6 km/h
Temperatura: 11°C
Ponto de Orvalho: 11°C
Humidade: 100%
Barómetro: 1025 hPa
Resumo: Nearby Fog
Clouds: Encoberto
Visibility: 7 km
Cloud details: Encoberto 61 m
2020/01/29 10:00 LEAM 291000Z 25003KT 7000 3000W VCFG VV002 11/11 Q1025
LEMD - Madrid/Barajas, Spain
Distance from station: NNE 402km
Actualizado: 29/01/2020 11:00
Muito nublado
Muito nublado
 Vento de SW
Vento: SW 15 km/h
Temperatura: 11°C
Ponto de Orvalho: 9°C
Humidade: 88%
Barómetro: 1025 hPa
Clouds: Muito nublado
Visibility: 10 km
Cloud details: Muito nublado 305 m
2020/01/29 10:00 LEMD 291000Z 23008KT 200V270 9999 BKN010 11/09 Q1025 NOSIG
 
LEVD - Valladolid, Spain
Distance from station: N 492km
Actualizado: 29/01/2020 11:00
Chuva fraca, Muito nublado
Chuva fraca, Muito nublado
 Vento de SW
Vento: SW 22 km/h
Temperatura: 9°C
Índice de frío: 6°C
Ponto de Orvalho: 8°C
Humidade: 94%
Barómetro: 1024 hPa
Resumo: Chuva fraca
Clouds: Muito nublado
Visibility: 10 km
Cloud details: Parcialmente nublado 213 m
Muito nublado 1219 m
2020/01/29 10:00 LEVD 291000Z 23012KT 9999 -RA SCT007 BKN040 09/08 Q1024
LEBL - Barcelona, Spain
Distance from station: NE 816km
Actualizado: 29/01/2020 11:00
Few Clouds
Few Clouds
 Vento de NNW
Vento: NNW 9 km/h
Temperatura: 12°C
Ponto de Orvalho: 7°C
Humidade: 72%
Barómetro: 1022 hPa
Clouds: Few Clouds
Visibility: 10 km
Cloud details: Few Clouds 1372 m
2020/01/29 10:00 LEBL 291000Z 33005KT 300V030 9999 FEW045 12/07 Q1022 NOSIG
LEVC - Valencia, Spain
Distance from station: ENE 535km
Actualizado: 29/01/2020 11:00
Céu limpo
Céu limpo
 Vento de WSW
Vento: WSW 24 km/h
Temperatura: 18°C
Ponto de Orvalho: 11°C
Humidade: 64%
Barómetro: 1023 hPa
Resumo: Céu limpo
Visibility: greater than 10 km
2020/01/29 10:00 LEVC 291000Z 25013KT CAVOK 18/11 Q1023 NOSIG